Time;durP1;ratioP1;P1;durP2;ratioP2;P2;SDS_P1;SDS_P2;PMS_P1;PMS_P2;Temp;Humidity;BMP_temperature;BMP_pressure;BME280_temperature;BME280_humidity;BME280_pressure;Samples;Min_cycle;Max_cycle;Signal;HPM_P1;HPM_P2
2021/10/06 00:00:42;;;;;;;8.40;7.70;;;15.20;99.90;;;;;;5028908;28;20472;-66
2021/10/06 00:03:10;;;;;;;7.70;7.00;;;15.20;99.90;;;;;;5012873;28;20483;-66
2021/10/06 00:05:37;;;;;;;8.83;8.00;;;15.20;99.90;;;;;;5020869;28;20468;-66
2021/10/06 00:08:04;;;;;;;8.13;7.43;;;15.20;99.90;;;;;;5030443;28;20456;-66
2021/10/06 00:10:31;;;;;;;7.03;6.37;;;15.20;99.90;;;;;;5012765;28;20476;-66
2021/10/06 00:12:58;;;;;;;7.37;6.67;;;15.20;99.90;;;;;;5025426;28;20476;-66
2021/10/06 00:15:25;;;;;;;7.13;6.53;;;15.10;99.90;;;;;;5012807;28;20804;-66
2021/10/06 00:17:52;;;;;;;7.50;6.87;;;15.20;99.90;;;;;;5014232;28;20469;-66
2021/10/06 00:20:20;;;;;;;7.77;5.83;;;15.10;99.90;;;;;;5023069;28;20944;-66
2021/10/06 00:22:47;;;;;;;7.17;6.60;;;15.10;99.90;;;;;;5012188;28;20971;-66
2021/10/06 00:25:14;;;;;;;7.23;6.20;;;15.20;99.90;;;;;;5021245;28;20468;-67
2021/10/06 00:27:41;;;;;;;7.03;6.43;;;15.20;99.90;;;;;;5015988;28;20491;-66
2021/10/06 00:30:08;;;;;;;6.40;5.90;;;15.20;99.90;;;;;;5012947;28;20475;-66
2021/10/06 00:32:36;;;;;;;6.47;5.80;;;15.20;99.90;;;;;;4993513;28;20462;-66
2021/10/06 00:35:03;;;;;;;5.80;5.30;;;15.20;99.90;;;;;;5005140;28;20505;-66
2021/10/06 00:37:31;;;;;;;6.40;5.90;;;15.20;99.90;;;;;;4993179;28;20484;-66
2021/10/06 00:39:58;;;;;;;5.93;5.43;;;15.20;99.90;;;;;;4992221;28;20478;-66
2021/10/06 00:42:25;;;;;;;6.20;5.70;;;15.20;99.90;;;;;;5000886;28;20479;-66
2021/10/06 00:44:53;;;;;;;6.67;6.07;;;15.30;99.90;;;;;;4999068;28;20474;-67
2021/10/06 00:47:20;;;;;;;6.80;6.17;;;15.30;99.90;;;;;;4992570;28;20471;-66
2021/10/06 00:49:48;;;;;;;6.27;5.87;;;15.30;99.90;;;;;;5005314;28;20785;-67
2021/10/06 00:52:16;;;;;;;6.30;5.80;;;15.30;99.90;;;;;;4992727;28;20994;-66
2021/10/06 00:54:45;;;;;;;7.30;6.63;;;15.30;99.90;;;;;;4993121;28;20474;-66
2021/10/06 00:57:12;;;;;;;5.60;5.10;;;15.30;99.90;;;;;;5004257;28;20761;-66
2021/10/06 00:59:40;;;;;;;5.50;5.00;;;15.30;99.90;;;;;;5006929;28;20469;-66
2021/10/06 01:02:06;;;;;;;5.47;5.07;;;15.20;99.90;;;;;;5001276;28;21259;-67
2021/10/06 01:04:34;;;;;;;6.03;5.63;;;15.20;99.90;;;;;;5031594;28;20468;-66
2021/10/06 01:07:01;;;;;;;5.33;4.93;;;15.20;99.90;;;;;;5031498;28;20472;-66
2021/10/06 01:09:30;;;;;;;5.80;5.13;;;15.20;99.90;;;;;;5023119;28;20468;-66
2021/10/06 01:12:00;;;;;;;6.57;5.10;;;15.20;99.90;;;;;;5013280;28;20469;-66
2021/10/06 01:14:28;;;;;;;5.53;5.13;;;15.20;99.90;;;;;;5015882;28;20464;-66
2021/10/06 01:16:55;;;;;;;6.00;5.50;;;15.20;99.90;;;;;;5023571;28;20476;-66
2021/10/06 01:19:24;;;;;;;6.50;5.90;;;15.20;99.90;;;;;;5016518;28;20465;-67
2021/10/06 01:21:53;;;;;;;5.50;5.10;;;15.20;99.90;;;;;;5011868;28;20810;-66
2021/10/06 01:24:21;;;;;;;5.50;5.00;;;15.20;99.90;;;;;;5025231;28;20807;-67
2021/10/06 01:26:48;;;;;;;6.10;5.60;;;15.20;99.90;;;;;;5012116;28;20469;-67
2021/10/06 01:29:15;;;;;;;5.40;5.00;;;15.20;99.90;;;;;;5024741;28;20472;-66
2021/10/06 01:31:43;;;;;;;6.33;5.73;;;15.20;99.90;;;;;;5021093;28;20487;-66
2021/10/06 01:34:10;;;;;;;5.43;4.93;;;15.20;99.90;;;;;;5029805;28;20627;-66
2021/10/06 01:36:38;;;;;;;6.23;5.73;;;15.20;99.90;;;;;;5022424;28;20483;-66
2021/10/06 01:39:08;;;;;;;7.33;5.87;;;15.20;99.90;;;;;;5029299;28;20468;-66
2021/10/06 01:41:36;;;;;;;5.60;5.00;;;15.20;99.90;;;;;;5025538;28;20460;-66
2021/10/06 01:44:04;;;;;;;5.20;4.80;;;15.20;99.90;;;;;;5028513;28;20469;-66
2021/10/06 01:46:31;;;;;;;5.73;5.33;;;15.20;99.90;;;;;;5019651;28;20474;-66
2021/10/06 01:48:58;;;;;;;5.07;4.67;;;15.20;99.90;;;;;;5028071;28;20487;-66
2021/10/06 01:51:25;;;;;;;5.63;5.23;;;15.20;99.90;;;;;;5028443;28;20464;-66
2021/10/06 01:53:52;;;;;;;5.30;4.90;;;15.20;99.90;;;;;;5014733;28;20491;-66
2021/10/06 01:56:20;;;;;;;5.80;5.30;;;15.20;99.90;;;;;;5015045;28;20977;-66
2021/10/06 01:58:49;;;;;;;5.73;5.33;;;15.20;99.90;;;;;;5016993;28;20480;-66
2021/10/06 02:01:17;;;;;;;5.93;5.43;;;15.20;99.90;;;;;;5027989;28;20461;-66
2021/10/06 02:03:43;;;;;;;6.27;5.67;;;15.30;99.90;;;;;;5022388;28;20813;-66
2021/10/06 02:06:10;;;;;;;5.87;5.37;;;15.30;99.90;;;;;;5020728;28;20472;-67
2021/10/06 02:08:37;;;;;;;5.60;5.10;;;15.20;99.90;;;;;;5022827;28;20469;-67
2021/10/06 02:11:04;;;;;;;5.63;5.03;;;15.20;99.90;;;;;;5028530;28;20460;-66
2021/10/06 02:13:32;;;;;;;5.63;5.23;;;15.20;99.90;;;;;;5026727;28;20975;-67
2021/10/06 02:16:00;;;;;;;6.90;6.20;;;15.20;99.90;;;;;;5015036;28;20472;-66
2021/10/06 02:18:27;;;;;;;5.60;5.20;;;15.30;99.90;;;;;;5026708;28;20479;-66
2021/10/06 02:20:54;;;;;;;6.50;6.00;;;15.20;99.90;;;;;;5014727;28;20845;-66
2021/10/06 02:23:20;;;;;;;6.83;6.23;;;15.20;99.90;;;;;;5022350;28;20798;-66
2021/10/06 02:25:47;;;;;;;6.30;5.80;;;15.10;99.90;;;;;;5019481;28;20473;-66
2021/10/06 02:28:14;;;;;;;6.57;5.90;;;15.10;99.90;;;;;;5025164;28;20465;-66
2021/10/06 02:30:42;;;;;;;6.43;5.87;;;15.10;99.90;;;;;;5016624;28;20483;-67
2021/10/06 02:33:09;;;;;;;6.43;5.83;;;15.20;99.90;;;;;;5027402;28;20479;-67
2021/10/06 02:35:36;;;;;;;5.80;5.27;;;15.20;99.90;;;;;;5031627;28;20478;-67
2021/10/06 02:38:04;;;;;;;5.53;5.10;;;15.20;99.90;;;;;;5020111;28;20468;-66
2021/10/06 02:40:30;;;;;;;7.47;5.40;;;15.20;99.90;;;;;;5020670;28;20469;-66
2021/10/06 02:42:57;;;;;;;6.67;6.07;;;15.30;99.90;;;;;;5019286;28;20470;-66
2021/10/06 02:45:24;;;;;;;5.93;5.43;;;15.20;99.90;;;;;;5027541;28;20474;-66
2021/10/06 02:47:52;;;;;;;6.77;5.63;;;15.20;99.90;;;;;;5013137;28;20797;-66
2021/10/06 02:50:23;;;;;;;6.10;5.60;;;15.20;99.90;;;;;;5013832;28;20469;-66
2021/10/06 02:52:50;;;;;;;6.63;6.03;;;15.20;99.90;;;;;;5025998;28;20563;-67
2021/10/06 02:55:17;;;;;;;5.77;5.27;;;15.20;99.90;;;;;;5013452;28;20959;-66
2021/10/06 02:57:44;;;;;;;6.23;5.70;;;15.20;99.90;;;;;;5021817;28;20472;-67
2021/10/06 03:00:12;;;;;;;6.03;5.53;;;15.20;99.90;;;;;;5031755;28;20464;-66
2021/10/06 03:02:40;;;;;;;6.03;5.53;;;15.20;99.90;;;;;;5024849;28;20475;-67
2021/10/06 03:05:10;;;;;;;7.13;5.80;;;15.20;99.90;;;;;;5015640;28;20477;-66
2021/10/06 03:07:37;;;;;;;6.03;5.47;;;15.20;99.90;;;;;;5033150;28;20474;-66
2021/10/06 03:10:05;;;;;;;6.13;5.73;;;15.20;99.90;;;;;;5019369;28;20468;-66
2021/10/06 03:12:32;;;;;;;7.40;6.70;;;15.20;99.90;;;;;;5033423;28;20574;-67
2021/10/06 03:14:59;;;;;;;6.07;5.53;;;15.20;99.90;;;;;;5016770;28;20487;-66
2021/10/06 03:17:25;;;;;;;8.93;8.13;;;15.20;99.90;;;;;;5013265;28;20583;-66
2021/10/06 03:19:52;;;;;;;10.03;8.27;;;15.20;99.90;;;;;;5026089;28;20627;-66
2021/10/06 03:22:21;;;;;;;7.93;7.27;;;15.30;99.90;;;;;;5021233;28;20466;-66
2021/10/06 03:24:47;;;;;;;6.93;6.23;;;15.30;99.90;;;;;;5017147;28;20972;-67
2021/10/06 03:27:16;;;;;;;9.10;8.13;;;15.30;99.90;;;;;;5023620;28;20461;-66
2021/10/06 03:29:43;;;;;;;6.70;6.10;;;15.30;99.90;;;;;;5031427;28;20559;-66
2021/10/06 03:32:10;;;;;;;7.40;6.60;;;15.30;99.90;;;;;;5021239;28;20479;-67
2021/10/06 03:34:37;;;;;;;7.97;7.23;;;15.30;99.90;;;;;;5022094;28;20468;-67
2021/10/06 03:37:04;;;;;;;7.77;5.50;;;15.30;99.90;;;;;;5021151;28;20515;-67
2021/10/06 03:39:32;;;;;;;6.57;6.07;;;15.30;99.90;;;;;;5025942;28;20469;-66
2021/10/06 03:41:59;;;;;;;6.93;6.27;;;15.30;99.90;;;;;;5018036;28;20465;-66
2021/10/06 03:44:26;;;;;;;6.70;6.20;;;15.30;99.90;;;;;;5002943;28;20533;-66
2021/10/06 03:46:53;;;;;;;8.13;7.30;;;15.30;99.90;;;;;;4993513;28;20480;-67
2021/10/06 03:49:20;;;;;;;10.87;9.87;;;15.30;99.90;;;;;;4992956;28;20470;-66
2021/10/06 03:51:47;;;;;;;13.83;12.43;;;15.40;99.90;;;;;;5006129;28;20479;-70
2021/10/06 03:54:16;;;;;;;10.33;9.33;;;15.30;99.90;;;;;;4998776;28;20509;-67
2021/10/06 03:56:46;;;;;;;9.37;8.57;;;15.40;99.90;;;;;;5026208;28;20897;-67
2021/10/06 03:59:13;;;;;;;7.17;6.57;;;15.40;99.90;;;;;;5018065;28;20467;-66
2021/10/06 04:01:40;;;;;;;7.60;7.00;;;15.40;99.90;;;;;;5017808;28;20465;-66
2021/10/06 04:04:07;;;;;;;7.03;6.43;;;15.50;99.90;;;;;;5007760;28;20474;-67
2021/10/06 04:06:34;;;;;;;5.60;5.20;;;15.50;99.90;;;;;;5007637;28;20465;-66
2021/10/06 04:09:01;;;;;;;6.87;6.27;;;15.50;99.90;;;;;;5012580;28;20477;-66
2021/10/06 04:11:28;;;;;;;9.07;8.20;;;15.50;99.90;;;;;;5010690;28;20465;-66
2021/10/06 04:13:56;;;;;;;7.23;6.10;;;15.50;99.90;;;;;;4993228;28;20496;-67
2021/10/06 04:16:23;;;;;;;6.33;5.83;;;15.50;99.90;;;;;;4996765;28;20815;-67
2021/10/06 04:18:49;;;;;;;5.33;4.93;;;15.50;99.90;;;;;;5011124;28;20473;-67
2021/10/06 04:21:16;;;;;;;6.10;5.63;;;15.50;99.90;;;;;;5012309;28;20491;-66
2021/10/06 04:23:44;;;;;;;7.70;7.07;;;15.60;99.90;;;;;;5012706;28;20806;-66
2021/10/06 04:26:11;;;;;;;9.77;8.77;;;15.60;99.90;;;;;;5012574;28;20465;-67
2021/10/06 04:28:38;;;;;;;8.30;7.50;;;15.60;99.90;;;;;;4997173;28;20469;-66
2021/10/06 04:31:07;;;;;;;6.50;6.00;;;15.60;99.90;;;;;;4993033;28;20470;-67
2021/10/06 04:33:34;;;;;;;6.00;5.47;;;15.60;99.90;;;;;;4992937;28;20454;-67
2021/10/06 04:36:00;;;;;;;6.30;5.80;;;15.60;99.90;;;;;;4992822;28;20482;-67
2021/10/06 04:38:27;;;;;;;6.20;5.60;;;15.60;99.90;;;;;;5010363;28;20485;-66
2021/10/06 04:40:54;;;;;;;7.37;6.70;;;15.60;99.90;;;;;;5012839;28;20471;-66
2021/10/06 04:43:21;;;;;;;6.93;6.33;;;15.60;99.90;;;;;;4996251;28;20472;-67
2021/10/06 04:45:48;;;;;;;6.90;6.20;;;15.60;99.90;;;;;;4993287;28;20462;-67
2021/10/06 04:48:16;;;;;;;8.13;5.97;;;15.50;99.90;;;;;;4996655;28;20465;-67
2021/10/06 04:50:43;;;;;;;6.07;5.50;;;15.50;99.90;;;;;;5012606;28;20816;-67
2021/10/06 04:53:09;;;;;;;9.60;8.80;;;15.50;99.90;;;;;;5012672;28;20484;-67
2021/10/06 04:55:37;;;;;;;12.67;11.57;;;15.50;99.90;;;;;;5012219;28;21262;-67
2021/10/06 04:58:04;;;;;;;10.53;9.30;;;15.50;99.90;;;;;;5012451;28;20473;-67
2021/10/06 05:00:31;;;;;;;9.80;8.27;;;15.50;99.90;;;;;;5012036;28;20479;-67
2021/10/06 05:03:06;;;;;;;7.83;7.13;;;15.50;99.90;;;;;;5012409;28;20469;-66
2021/10/06 05:05:34;;;;;;;9.33;7.77;;;15.60;99.90;;;;;;5011983;28;20478;-67
2021/10/06 05:08:01;;;;;;;6.43;5.93;;;15.50;99.90;;;;;;4992819;28;20478;-67
2021/10/06 05:10:28;;;;;;;7.80;5.60;;;15.50;99.90;;;;;;5012897;28;20472;-67
2021/10/06 05:12:55;;;;;;;5.10;4.70;;;15.60;99.90;;;;;;5052795;28;20463;-67
2021/10/06 05:15:22;;;;;;;5.70;5.20;;;15.60;99.90;;;;;;5052891;28;20470;-67
2021/10/06 05:17:49;;;;;;;5.03;4.70;;;15.60;99.90;;;;;;5053160;28;20455;-66
2021/10/06 05:20:16;;;;;;;7.50;6.90;;;15.60;99.90;;;;;;5052704;28;20463;-66
2021/10/06 05:22:44;;;;;;;5.27;4.83;;;15.60;99.90;;;;;;5053085;28;20999;-67
2021/10/06 05:25:11;;;;;;;5.97;5.43;;;15.50;99.90;;;;;;5053165;28;20471;-67
2021/10/06 05:27:38;;;;;;;5.33;4.83;;;15.50;99.90;;;;;;5036771;28;20472;-67
2021/10/06 05:30:07;;;;;;;5.40;4.90;;;15.50;99.90;;;;;;4996145;28;20476;-66
2021/10/06 05:32:34;;;;;;;6.10;5.47;;;15.50;99.90;;;;;;4995682;28;21024;-67
2021/10/06 05:35:01;;;;;;;6.23;5.47;;;15.50;99.90;;;;;;4995897;28;20474;-67
2021/10/06 05:37:28;;;;;;;6.67;5.70;;;15.50;99.90;;;;;;4995710;28;20978;-67
2021/10/06 05:39:56;;;;;;;8.57;7.63;;;15.40;99.90;;;;;;4995778;28;20476;-67
2021/10/06 05:42:23;;;;;;;10.00;8.27;;;15.50;99.90;;;;;;5003288;28;20464;-67
2021/10/06 05:44:50;;;;;;;7.97;7.17;;;15.40;99.90;;;;;;5015738;28;20461;-67
2021/10/06 05:47:17;;;;;;;8.60;7.80;;;15.40;99.90;;;;;;5014884;28;20483;-66
2021/10/06 05:49:46;;;;;;;7.47;6.77;;;15.30;99.90;;;;;;5015293;28;20469;-67
2021/10/06 05:52:13;;;;;;;8.53;7.80;;;15.30;99.90;;;;;;5015597;28;20547;-67
2021/10/06 05:54:40;;;;;;;8.07;7.33;;;15.30;99.90;;;;;;5014718;28;20799;-66
2021/10/06 05:57:08;;;;;;;9.70;6.80;;;15.30;99.90;;;;;;5015450;28;20470;-67
2021/10/06 05:59:35;;;;;;;5.87;5.37;;;15.30;99.90;;;;;;5014558;28;20465;-67
2021/10/06 06:02:02;;;;;;;6.47;5.93;;;15.30;99.90;;;;;;5015378;28;20484;-66
2021/10/06 06:04:29;;;;;;;5.00;4.60;;;15.20;99.90;;;;;;5014907;28;20491;-66
2021/10/06 06:06:56;;;;;;;7.40;6.70;;;15.20;99.90;;;;;;5015021;28;20465;-67
2021/10/06 06:09:22;;;;;;;7.00;6.30;;;15.20;99.90;;;;;;5014297;28;20481;-66
2021/10/06 06:11:50;;;;;;;11.33;9.00;;;15.20;99.90;;;;;;5015218;28;20457;-66
2021/10/06 06:14:19;;;;;;;8.53;7.73;;;15.20;99.90;;;;;;5014947;28;20870;-67
2021/10/06 06:16:46;;;;;;;9.43;7.43;;;15.20;99.90;;;;;;5014683;28;20961;-66
2021/10/06 06:19:13;;;;;;;8.77;7.97;;;15.20;99.90;;;;;;5014604;28;20508;-66
2021/10/06 06:21:42;;;;;;;10.47;8.00;;;15.20;99.90;;;;;;5014294;28;20473;-66
2021/10/06 06:24:09;;;;;;;15.20;13.70;;;15.20;99.90;;;;;;5013469;28;20477;-66
2021/10/06 06:26:36;;;;;;;13.30;11.93;;;15.10;99.90;;;;;;5014433;28;20470;-66
2021/10/06 06:29:02;;;;;;;11.40;10.20;;;15.10;99.90;;;;;;5014517;28;20827;-66
2021/10/06 06:31:31;;;;;;;9.30;8.40;;;15.10;99.90;;;;;;5014211;28;20784;-66
2021/10/06 06:33:57;;;;;;;7.23;6.70;;;15.10;99.90;;;;;;5014674;28;20460;-67
2021/10/06 06:36:24;;;;;;;7.10;6.40;;;15.10;99.90;;;;;;5014294;28;20469;-68
2021/10/06 06:38:51;;;;;;;28.97;20.67;;;15.10;99.90;;;;;;5014112;28;20469;-67
2021/10/06 06:41:18;;;;;;;10.40;8.90;;;15.10;99.90;;;;;;5014446;28;20475;-67
2021/10/06 06:43:45;;;;;;;6.80;5.60;;;15.10;99.90;;;;;;5013959;28;20472;-67
2021/10/06 06:46:12;;;;;;;6.00;5.40;;;15.10;99.90;;;;;;5014462;28;20471;-68
2021/10/06 06:48:40;;;;;;;6.40;5.67;;;15.10;99.90;;;;;;5013697;28;20471;-67
2021/10/06 06:51:07;;;;;;;9.87;8.87;;;15.10;99.90;;;;;;5014282;28;20481;-68
2021/10/06 06:53:33;;;;;;;10.70;8.23;;;15.20;99.90;;;;;;5013979;28;20954;-67
2021/10/06 06:56:01;;;;;;;8.83;6.40;;;15.20;99.90;;;;;;5014244;28;20846;-67
2021/10/06 06:58:27;;;;;;;6.13;5.63;;;15.20;99.90;;;;;;5013477;28;20467;-67
2021/10/06 07:00:54;;;;;;;14.27;6.30;;;15.20;99.90;;;;;;5014128;28;20473;-67
2021/10/06 07:03:21;;;;;;;15.10;7.13;;;15.20;99.90;;;;;;5013735;28;20476;-67
2021/10/06 07:05:49;;;;;;;9.83;5.60;;;15.20;99.90;;;;;;5013651;28;20464;-68
2021/10/06 07:08:17;;;;;;;16.47;9.77;;;15.30;99.90;;;;;;5014093;28;20471;-68
2021/10/06 07:10:44;;;;;;;9.30;8.10;;;15.30;99.90;;;;;;5013614;28;20469;-67
2021/10/06 07:13:10;;;;;;;8.23;6.33;;;15.30;99.90;;;;;;5013778;28;20468;-67
2021/10/06 07:15:37;;;;;;;7.90;6.43;;;15.40;99.90;;;;;;5013440;28;20476;-68
2021/10/06 07:18:04;;;;;;;12.13;7.90;;;15.40;99.90;;;;;;5013865;28;20469;-67
2021/10/06 07:20:31;;;;;;;5.57;4.00;;;15.40;99.90;;;;;;5013275;28;20461;-67
2021/10/06 07:22:59;;;;;;;5.43;4.50;;;15.40;99.90;;;;;;5013872;28;20461;-67
2021/10/06 07:25:26;;;;;;;4.93;4.40;;;15.40;99.90;;;;;;5012957;28;20465;-67
2021/10/06 07:27:53;;;;;;;5.13;4.70;;;15.40;99.90;;;;;;5013420;28;20468;-68
2021/10/06 07:30:20;;;;;;;4.20;3.90;;;15.40;99.90;;;;;;5013353;28;20481;-68
2021/10/06 07:32:47;;;;;;;4.60;4.03;;;15.40;99.90;;;;;;5013046;28;20469;-68
2021/10/06 07:35:14;;;;;;;8.90;5.63;;;15.40;99.90;;;;;;5012893;28;20492;-68
2021/10/06 07:37:41;;;;;;;7.53;6.70;;;15.50;99.90;;;;;;5013112;28;20985;-68
2021/10/06 07:40:11;;;;;;;7.43;5.30;;;15.50;99.90;;;;;;5013268;28;20469;-68
2021/10/06 07:42:38;;;;;;;4.40;4.00;;;15.60;99.90;;;;;;5013027;28;20461;-68
2021/10/06 07:45:06;;;;;;;4.33;3.87;;;15.60;99.90;;;;;;5013503;28;20465;-69
2021/10/06 07:47:33;;;;;;;3.70;3.40;;;15.60;99.90;;;;;;5012825;28;20487;-68
2021/10/06 07:50:00;;;;;;;4.03;3.33;;;15.70;99.90;;;;;;5013294;28;20469;-68
2021/10/06 07:52:27;;;;;;;6.20;3.13;;;15.70;99.90;;;;;;5012627;28;20479;-68
2021/10/06 07:54:54;;;;;;;4.33;3.93;;;15.70;99.90;;;;;;5013088;28;20465;-68
2021/10/06 07:57:22;;;;;;;5.23;3.03;;;15.70;99.90;;;;;;5013319;28;20471;-68
2021/10/06 07:59:49;;;;;;;3.83;2.97;;;15.70;99.90;;;;;;5012592;28;20805;-68
2021/10/06 08:02:16;;;;;;;4.00;2.57;;;15.80;99.90;;;;;;5013081;28;20469;-68
2021/10/06 08:04:43;;;;;;;2.60;2.10;;;15.80;99.90;;;;;;5012817;28;20465;-68
2021/10/06 08:07:10;;;;;;;3.43;3.13;;;15.90;99.90;;;;;;5013033;28;20796;-68
2021/10/06 08:09:36;;;;;;;4.87;3.40;;;15.90;99.90;;;;;;5012553;28;20475;-68
2021/10/06 08:12:03;;;;;;;2.63;2.40;;;16.00;99.90;;;;;;5013051;28;20461;-68
2021/10/06 08:14:31;;;;;;;2.47;2.17;;;16.00;99.90;;;;;;5012591;28;20552;-68
2021/10/06 08:16:58;;;;;;;3.57;2.70;;;16.10;99.90;;;;;;5012832;28;20476;-68
2021/10/06 08:19:25;;;;;;;5.93;2.80;;;16.10;99.90;;;;;;5013000;28;20487;-68
2021/10/06 08:21:52;;;;;;;2.60;1.97;;;16.20;99.90;;;;;;5012397;28;20469;-68
2021/10/06 08:24:19;;;;;;;3.93;2.27;;;16.20;99.90;;;;;;5012704;28;20465;-68
2021/10/06 08:26:46;;;;;;;5.23;2.80;;;16.20;99.90;;;;;;5012486;28;20515;-68
2021/10/06 08:29:12;;;;;;;4.17;3.10;;;16.20;99.90;;;;;;5012735;28;20475;-68
2021/10/06 08:31:41;;;;;;;2.80;2.13;;;16.20;99.90;;;;;;5012611;28;20465;-68
2021/10/06 08:34:08;;;;;;;2.40;2.07;;;16.30;99.90;;;;;;5012666;28;20465;-68
2021/10/06 08:36:34;;;;;;;2.20;2.10;;;16.40;99.90;;;;;;5029244;28;20468;-67
2021/10/06 08:39:02;;;;;;;6.40;2.43;;;16.40;99.90;;;;;;5032409;28;20464;-68
2021/10/06 08:41:31;;;;;;;3.40;2.10;;;16.40;99.90;;;;;;5031790;28;20544;-68
2021/10/06 08:43:59;;;;;;;4.53;2.47;;;16.40;99.90;;;;;;5012250;28;20626;-68
2021/10/06 08:46:27;;;;;;;2.13;2.00;;;16.50;99.90;;;;;;5013669;28;20475;-68
2021/10/06 08:48:55;;;;;;;3.43;2.80;;;16.50;99.90;;;;;;5015921;28;20456;-68
2021/10/06 08:51:23;;;;;;;5.57;3.80;;;16.60;99.90;;;;;;5016860;28;20841;-68
2021/10/06 08:53:51;;;;;;;3.77;3.30;;;16.60;99.90;;;;;;5016191;28;20464;-68
2021/10/06 08:56:21;;;;;;;4.60;3.40;;;16.70;99.90;;;;;;5016610;28;20468;-68
2021/10/06 08:58:48;;;;;;;4.50;3.90;;;16.70;99.90;;;;;;5016136;28;20472;-68
2021/10/06 09:01:22;;;;;;;3.30;2.63;;;16.70;99.90;;;;;;5016432;28;20473;-68
2021/10/06 09:03:57;;;;;;;3.70;2.63;;;16.70;99.90;;;;;;5016159;28;20468;-68
2021/10/06 09:06:35;;;;;;;5.40;4.50;;;16.70;99.90;;;;;;5016286;28;20476;-68
2021/10/06 09:09:16;;;;;;;5.07;2.50;;;16.80;99.90;;;;;;5015903;28;20487;-68
2021/10/06 09:11:45;;;;;;;5.30;2.40;;;16.80;99.90;;;;;;5015945;28;20464;-68
2021/10/06 09:14:12;;;;;;;2.80;2.40;;;16.80;99.90;;;;;;5036256;28;20467;-68
2021/10/06 09:16:40;;;;;;;4.33;2.00;;;16.80;99.90;;;;;;5035534;28;20472;-68
2021/10/06 09:19:09;;;;;;;2.40;1.97;;;16.80;99.90;;;;;;5035935;28;20573;-68
2021/10/06 09:21:52;;;;;;;2.20;1.83;;;16.90;99.90;;;;;;5035995;28;20472;-68
2021/10/06 09:24:19;;;;;;;4.33;2.20;;;16.90;99.90;;;;;;5016009;28;20788;-67
2021/10/06 09:26:46;;;;;;;3.10;2.10;;;17.00;99.90;;;;;;5015806;28;20465;-68
2021/10/06 09:29:21;;;;;;;4.70;2.27;;;17.10;99.90;;;;;;5015779;28;20469;-68
2021/10/06 09:31:48;;;;;;;3.03;1.93;;;17.10;99.90;;;;;;5015814;28;20475;-68
2021/10/06 09:34:16;;;;;;;3.40;2.17;;;17.10;99.90;;;;;;5015725;28;20473;-68
2021/10/06 09:36:43;;;;;;;3.63;2.50;;;17.20;99.90;;;;;;5015196;28;20480;-67
2021/10/06 09:39:11;;;;;;;5.30;2.90;;;17.30;99.90;;;;;;5015618;28;20479;-68
2021/10/06 09:41:41;;;;;;;4.50;2.10;;;17.30;99.90;;;;;;5015296;28;20811;-68
2021/10/06 09:44:11;;;;;;;6.80;5.60;;;17.30;99.90;;;;;;5015580;28;20610;-67
2021/10/06 09:46:50;;;;;;;5.80;4.67;;;17.40;99.90;;;;;;5015185;28;20465;-68
2021/10/06 09:49:27;;;;;;;2.50;2.30;;;17.40;99.90;;;;;;5015690;28;20481;-68
2021/10/06 09:51:56;;;;;;;2.43;2.00;;;17.40;99.90;;;;;;5015412;28;20465;-68
2021/10/06 09:54:23;;;;;;;2.57;1.70;;;17.50;99.90;;;;;;5015371;28;20807;-67
2021/10/06 09:56:51;;;;;;;4.03;2.50;;;17.50;99.90;;;;;;5014871;28;20457;-68
2021/10/06 09:59:18;;;;;;;2.43;2.23;;;17.50;99.90;;;;;;5015366;28;20998;-67
2021/10/06 10:01:47;;;;;;;1.80;1.43;;;17.50;99.90;;;;;;5014621;28;20465;-67
2021/10/06 10:04:15;;;;;;;2.60;2.40;;;17.60;99.90;;;;;;5015381;28;20473;-68
2021/10/06 10:06:43;;;;;;;4.43;2.00;;;17.60;99.90;;;;;;5014763;28;20829;-68
2021/10/06 10:09:13;;;;;;;3.30;1.70;;;17.60;99.90;;;;;;5014833;28;20477;-68
2021/10/06 10:11:41;;;;;;;5.13;2.13;;;17.70;99.90;;;;;;5014929;28;20499;-68
2021/10/06 10:14:09;;;;;;;3.20;2.43;;;17.70;99.90;;;;;;4995435;28;20597;-68
2021/10/06 10:16:39;;;;;;;2.17;1.80;;;17.70;99.90;;;;;;4995175;28;20480;-68
2021/10/06 10:19:09;;;;;;;4.90;1.83;;;17.70;99.90;;;;;;4995403;28;20485;-67
2021/10/06 10:21:38;;;;;;;4.83;3.70;;;17.70;99.90;;;;;;4994992;28;20462;-68
2021/10/06 10:24:09;;;;;;;4.70;4.30;;;17.70;99.90;;;;;;4995394;28;20462;-68
2021/10/06 10:26:36;;;;;;;2.40;2.20;;;17.80;99.90;;;;;;4994795;28;20488;-68
2021/10/06 10:29:23;;;;;;;2.43;2.20;;;17.90;99.90;;;;;;5013968;28;20471;-68
2021/10/06 10:32:06;;;;;;;5.73;4.00;;;17.90;99.90;;;;;;5014354;28;20464;-67
2021/10/06 10:35:02;;;;;;;4.90;2.30;;;18.00;99.90;;;;;;5014421;28;20469;-68
2021/10/06 10:38:12;;;;;;;3.33;2.43;;;18.00;99.90;;;;;;5014745;28;20476;-67
2021/10/06 10:40:46;;;;;;;2.10;1.87;;;18.10;99.90;;;;;;5014187;28;20465;-67
2021/10/06 10:43:15;;;;;;;4.50;2.00;;;18.10;99.90;;;;;;5014393;28;20472;-68
2021/10/06 10:45:47;;;;;;;3.53;2.27;;;18.00;99.90;;;;;;5014499;28;21546;-68
2021/10/06 10:48:15;;;;;;;5.43;1.97;;;18.00;99.90;;;;;;5014358;28;20982;-68
2021/10/06 10:51:05;;;;;;;1.50;1.30;;;18.00;99.90;;;;;;5013884;28;20460;-68
2021/10/06 10:54:01;;;;;;;3.97;1.37;;;18.00;99.90;;;;;;5013729;28;20461;-67
2021/10/06 10:56:53;;;;;;;1.83;1.60;;;18.00;99.90;;;;;;5013704;28;20465;-68
2021/10/06 10:59:22;;;;;;;12.47;3.57;;;18.00;99.90;;;;;;5013710;28;20473;-67
2021/10/06 11:01:52;;;;;;;8.17;6.43;;;18.00;99.90;;;;;;5013917;28;20471;-67
2021/10/06 11:04:21;;;;;;;7.67;6.87;;;17.90;99.90;;;;;;5013921;28;20859;-67
2021/10/06 11:06:51;;;;;;;6.37;5.77;;;17.90;99.90;;;;;;5014143;28;20862;-67
2021/10/06 11:09:37;;;;;;;4.70;2.83;;;17.90;99.90;;;;;;5013292;28;20469;-67
2021/10/06 11:12:34;;;;;;;2.23;2.03;;;17.90;99.90;;;;;;5013957;28;20557;-67
2021/10/06 11:15:26;;;;;;;2.70;2.50;;;17.90;99.90;;;;;;5013465;28;20456;-67
2021/10/06 11:18:12;;;;;;;2.77;1.67;;;17.90;99.90;;;;;;5010917;28;20491;-67
2021/10/06 11:20:45;;;;;;;2.57;1.87;;;18.00;99.90;;;;;;5013973;28;20461;-67
2021/10/06 11:26:36;;;;;;;4.13;1.57;;;18.00;99.90;;;;;;5013323;28;20473;-67
2021/10/06 11:29:08;;;;;;;3.00;2.30;;;18.10;99.90;;;;;;5013669;28;20473;-67
2021/10/06 11:31:36;;;;;;;2.07;1.60;;;18.10;99.90;;;;;;5013281;28;20461;-67
2021/10/06 11:34:15;;;;;;;2.40;1.20;;;18.00;99.90;;;;;;5013869;28;20495;-67
2021/10/06 11:36:49;;;;;;;4.23;2.03;;;18.10;99.90;;;;;;5013277;28;20511;-67
2021/10/06 11:39:15;;;;;;;2.00;1.60;;;18.00;99.90;;;;;;5013315;28;20479;-67
2021/10/06 11:41:44;;;;;;;6.47;2.50;;;18.00;99.90;;;;;;5012818;28;20471;-67
2021/10/06 11:44:17;;;;;;;3.13;1.27;;;18.10;99.90;;;;;;5013476;28;20475;-67
2021/10/06 11:46:44;;;;;;;10.53;2.60;;;18.10;99.90;;;;;;5012996;28;20465;-67
2021/10/06 11:49:11;;;;;;;3.13;1.90;;;18.10;99.90;;;;;;5013205;28;21045;-67
2021/10/06 11:51:47;;;;;;;5.83;2.27;;;18.10;99.90;;;;;;5012625;28;20461;-67
2021/10/06 11:54:16;;;;;;;1.93;1.63;;;18.10;99.90;;;;;;5013328;28;20477;-67
2021/10/06 11:56:43;;;;;;;2.23;1.47;;;18.10;99.90;;;;;;5012849;28;20471;-67
2021/10/06 11:59:14;;;;;;;4.63;2.47;;;18.10;99.90;;;;;;5013112;28;20983;-67
2021/10/06 12:01:42;;;;;;;2.23;1.53;;;18.20;99.90;;;;;;5012632;28;20483;-67
2021/10/06 12:04:11;;;;;;;8.00;4.47;;;18.20;99.90;;;;;;5013046;28;20465;-67
2021/10/06 12:06:38;;;;;;;11.63;5.87;;;18.20;99.90;;;;;;5012564;28;20465;-67
2021/10/06 12:09:09;;;;;;;10.90;5.10;;;18.30;99.90;;;;;;5012876;28;20472;-67
2021/10/06 12:11:38;;;;;;;15.10;3.70;;;18.30;99.90;;;;;;5012547;28;20460;-67
2021/10/06 12:14:29;;;;;;;5.40;2.70;;;18.40;99.90;;;;;;5012758;28;20461;-67
2021/10/06 12:17:08;;;;;;;3.33;2.23;;;18.40;99.90;;;;;;5012389;28;20467;-67
2021/10/06 12:19:36;;;;;;;4.90;1.80;;;18.40;99.90;;;;;;5012586;28;20479;-67
2021/10/06 12:22:04;;;;;;;2.17;1.60;;;18.50;99.90;;;;;;5011949;28;20476;-67
2021/10/06 12:24:32;;;;;;;2.60;2.17;;;18.50;99.90;;;;;;5012505;28;20475;-67
2021/10/06 12:27:00;;;;;;;3.40;1.67;;;18.60;99.90;;;;;;5012059;28;20465;-67
2021/10/06 12:29:31;;;;;;;8.27;1.70;;;18.60;99.90;;;;;;5012952;28;20469;-67
2021/10/06 12:32:15;;;;;;;5.77;1.87;;;18.60;99.90;;;;;;5012307;28;20464;-67
2021/10/06 12:34:42;;;;;;;5.17;2.10;;;18.60;99.90;;;;;;5012103;28;20526;-67
2021/10/06 12:37:09;;;;;;;4.43;2.30;;;18.50;99.90;;;;;;5012494;28;20465;-67
2021/10/06 12:39:37;;;;;;;2.83;1.83;;;18.50;99.90;;;;;;5012259;28;20487;-67
2021/10/06 12:42:08;;;;;;;1.80;1.67;;;18.50;99.90;;;;;;5012690;28;20467;-67
2021/10/06 12:44:43;;;;;;;4.97;1.50;;;18.50;99.90;;;;;;5012387;28;20469;-67
2021/10/06 12:47:13;;;;;;;2.60;1.30;;;18.40;99.90;;;;;;5012475;28;20941;-68
2021/10/06 12:49:47;;;;;;;2.43;1.60;;;18.40;99.70;;;;;;5010893;28;20477;-68
2021/10/06 12:52:22;;;;;;;2.87;1.23;;;18.40;99.90;;;;;;4992822;28;21212;-68
2021/10/06 12:54:48;;;;;;;1.10;1.00;;;18.40;99.90;;;;;;4992895;28;20465;-68
2021/10/06 12:57:16;;;;;;;3.53;1.40;;;18.40;99.90;;;;;;4992517;28;20472;-68